sensor_id;sensor_type;location;lat;lon;timestamp;pressure;altitude;pressure_sealevel;temperature;humidity
65013;BME280;51715;39.432;-77.518;2023-03-04T00:01:59;98382.56;;;1.77;65.33
65013;BME280;51715;39.432;-77.518;2023-03-04T00:04:28;98374.31;;;2.06;65.04
65013;BME280;51715;39.432;-77.518;2023-03-04T00:06:58;98357.60;;;1.28;67.59
65013;BME280;51715;39.432;-77.518;2023-03-04T00:09:26;98356.52;;;0.68;69.12
65013;BME280;51715;39.432;-77.518;2023-03-04T00:11:54;98348.44;;;0.97;69.33
65013;BME280;51715;39.432;-77.518;2023-03-04T00:14:23;98290.32;;;1.47;67.73
65013;BME280;51715;39.432;-77.518;2023-03-04T00:16:52;98268.08;;;0.80;69.70
65013;BME280;51715;39.432;-77.518;2023-03-04T00:19:20;98269.28;;;0.58;71.19
65013;BME280;51715;39.432;-77.518;2023-03-04T00:21:48;98256.02;;;0.66;70.80
65013;BME280;51715;39.432;-77.518;2023-03-04T00:24:16;98267.01;;;0.97;68.89
65013;BME280;51715;39.432;-77.518;2023-03-04T00:26:45;98246.29;;;2.14;65.43
65013;BME280;51715;39.432;-77.518;2023-03-04T00:29:13;98235.66;;;2.26;65.19
65013;BME280;51715;39.432;-77.518;2023-03-04T00:31:41;98226.07;;;2.10;64.70
65013;BME280;51715;39.432;-77.518;2023-03-04T00:34:11;98210.95;;;1.18;69.90
65013;BME280;51715;39.432;-77.518;2023-03-04T00:36:40;98190.78;;;1.48;68.47
65013;BME280;51715;39.432;-77.518;2023-03-04T00:39:09;98181.82;;;1.57;68.00
65013;BME280;51715;39.432;-77.518;2023-03-04T00:41:38;98161.35;;;0.99;70.52
65013;BME280;51715;39.432;-77.518;2023-03-04T00:44:06;98178.31;;;0.75;70.33
65013;BME280;51715;39.432;-77.518;2023-03-04T00:46:34;98177.95;;;1.31;69.19
65013;BME280;51715;39.432;-77.518;2023-03-04T00:49:02;98132.12;;;1.60;68.13
65013;BME280;51715;39.432;-77.518;2023-03-04T00:51:30;98111.57;;;1.40;68.65
65013;BME280;51715;39.432;-77.518;2023-03-04T00:53:58;98101.97;;;1.09;70.65
65013;BME280;51715;39.432;-77.518;2023-03-04T00:56:26;98085.00;;;1.63;68.17
65013;BME280;51715;39.432;-77.518;2023-03-04T00:58:55;98077.24;;;1.22;69.77
65013;BME280;51715;39.432;-77.518;2023-03-04T01:01:24;98066.45;;;0.85;71.67
65013;BME280;51715;39.432;-77.518;2023-03-04T01:03:52;98038.75;;;0.34;73.88
65013;BME280;51715;39.432;-77.518;2023-03-04T01:06:21;98047.80;;;0.62;71.74
65013;BME280;51715;39.432;-77.518;2023-03-04T01:08:50;98023.47;;;0.77;72.68
65013;BME280;51715;39.432;-77.518;2023-03-04T01:11:18;98013.89;;;0.43;73.77
65013;BME280;51715;39.432;-77.518;2023-03-04T01:13:47;98000.04;;;1.32;71.51
65013;BME280;51715;39.432;-77.518;2023-03-04T01:16:17;97983.88;;;0.54;74.29
65013;BME280;51715;39.432;-77.518;2023-03-04T01:18:46;97973.38;;;0.53;74.99
65013;BME280;51715;39.432;-77.518;2023-03-04T01:21:14;97959.84;;;0.64;74.07
65013;BME280;51715;39.432;-77.518;2023-03-04T01:23:43;97948.06;;;0.54;74.49
65013;BME280;51715;39.432;-77.518;2023-03-04T01:26:12;97920.94;;;1.17;71.93
65013;BME280;51715;39.432;-77.518;2023-03-04T01:28:41;97919.16;;;1.06;72.01
65013;BME280;51715;39.432;-77.518;2023-03-04T01:31:09;97890.99;;;1.37;72.63
65013;BME280;51715;39.432;-77.518;2023-03-04T01:33:38;97863.29;;;0.86;74.80
65013;BME280;51715;39.432;-77.518;2023-03-04T01:36:07;97821.80;;;0.58;74.30
65013;BME280;51715;39.432;-77.518;2023-03-04T01:38:36;97799.53;;;0.65;75.57
65013;BME280;51715;39.432;-77.518;2023-03-04T01:41:05;97782.21;;;0.73;75.04
65013;BME280;51715;39.432;-77.518;2023-03-04T01:43:36;97765.07;;;1.14;74.47
65013;BME280;51715;39.432;-77.518;2023-03-04T01:46:06;97752.45;;;0.84;74.47
65013;BME280;51715;39.432;-77.518;2023-03-04T01:48:36;97781.30;;;1.05;73.85
65013;BME280;51715;39.432;-77.518;2023-03-04T01:51:11;97797.74;;;1.62;72.19
65013;BME280;51715;39.432;-77.518;2023-03-04T01:53:39;97774.08;;;1.64;71.66
65013;BME280;51715;39.432;-77.518;2023-03-04T01:56:14;97749.39;;;1.78;72.22
65013;BME280;51715;39.432;-77.518;2023-03-04T01:58:44;97739.16;;;1.57;72.96
65013;BME280;51715;39.432;-77.518;2023-03-04T02:01:13;97766.33;;;1.21;74.78
65013;BME280;51715;39.432;-77.518;2023-03-04T02:03:42;97811.78;;;1.36;74.59
65013;BME280;51715;39.432;-77.518;2023-03-04T02:06:11;97830.72;;;1.80;72.91
65013;BME280;51715;39.432;-77.518;2023-03-04T02:08:39;97870.68;;;3.34;66.93
65013;BME280;51715;39.432;-77.518;2023-03-04T02:11:07;97875.89;;;4.53;62.48
65013;BME280;51715;39.432;-77.518;2023-03-04T02:13:36;97859.46;;;5.16;60.41
65013;BME280;51715;39.432;-77.518;2023-03-04T02:16:06;97868.27;;;5.69;57.90
65013;BME280;51715;39.432;-77.518;2023-03-04T02:18:33;97880.54;;;6.53;56.32
65013;BME280;51715;39.432;-77.518;2023-03-04T02:21:06;97876.13;;;7.00;54.46
65013;BME280;51715;39.432;-77.518;2023-03-04T02:23:46;97868.87;;;7.62;52.89
65013;BME280;51715;39.432;-77.518;2023-03-04T02:26:18;97844.01;;;7.55;52.09
65013;BME280;51715;39.432;-77.518;2023-03-04T02:28:49;97814.07;;;7.61;52.21
65013;BME280;51715;39.432;-77.518;2023-03-04T02:31:23;97794.30;;;7.75;51.41
65013;BME280;51715;39.432;-77.518;2023-03-04T02:33:54;97761.42;;;8.07;50.74
65013;BME280;51715;39.432;-77.518;2023-03-04T02:36:25;97762.89;;;8.13;50.50
65013;BME280;51715;39.432;-77.518;2023-03-04T02:38:59;97745.96;;;7.84;50.83
65013;BME280;51715;39.432;-77.518;2023-03-04T02:41:29;97725.74;;;8.44;50.25
65013;BME280;51715;39.432;-77.518;2023-03-04T02:43:58;97705.24;;;8.54;49.85
65013;BME280;51715;39.432;-77.518;2023-03-04T02:46:27;97702.13;;;8.76;49.35
65013;BME280;51715;39.432;-77.518;2023-03-04T02:48:55;97705.18;;;8.59;49.10
65013;BME280;51715;39.432;-77.518;2023-03-04T02:51:23;97763.10;;;8.82;49.09
65013;BME280;51715;39.432;-77.518;2023-03-04T02:53:51;97752.16;;;8.78;49.24
65013;BME280;51715;39.432;-77.518;2023-03-04T02:56:20;97757.55;;;8.58;49.40
65013;BME280;51715;39.432;-77.518;2023-03-04T02:58:48;97777.41;;;8.27;51.06
65013;BME280;51715;39.432;-77.518;2023-03-04T03:01:17;97817.75;;;7.59;52.21
65013;BME280;51715;39.432;-77.518;2023-03-04T03:03:46;97923.08;;;7.62;52.00
65013;BME280;51715;39.432;-77.518;2023-03-04T03:06:14;97964.12;;;6.96;53.31
65013;BME280;51715;39.432;-77.518;2023-03-04T03:08:43;97864.17;;;6.73;53.47
65013;BME280;51715;39.432;-77.518;2023-03-04T03:11:11;97770.55;;;6.04;54.81
65013;BME280;51715;39.432;-77.518;2023-03-04T03:13:39;97773.38;;;6.38;54.32
65013;BME280;51715;39.432;-77.518;2023-03-04T03:16:07;97796.07;;;6.54;52.92
65013;BME280;51715;39.432;-77.518;2023-03-04T03:18:36;97852.22;;;6.61;52.24
65013;BME280;51715;39.432;-77.518;2023-03-04T03:21:05;97885.24;;;6.28;52.85
65013;BME280;51715;39.432;-77.518;2023-03-04T03:23:35;97879.94;;;6.36;52.34
65013;BME280;51715;39.432;-77.518;2023-03-04T03:26:05;97858.72;;;6.53;51.81
65013;BME280;51715;39.432;-77.518;2023-03-04T03:28:34;97845.07;;;7.22;50.90
65013;BME280;51715;39.432;-77.518;2023-03-04T03:31:02;97838.76;;;6.41;52.00
65013;BME280;51715;39.432;-77.518;2023-03-04T03:33:32;97808.04;;;6.37;52.26
65013;BME280;51715;39.432;-77.518;2023-03-04T03:36:00;97806.38;;;6.38;51.75
65013;BME280;51715;39.432;-77.518;2023-03-04T03:38:28;97777.39;;;6.16;52.53
65013;BME280;51715;39.432;-77.518;2023-03-04T03:40:57;97738.86;;;6.13;52.49
65013;BME280;51715;39.432;-77.518;2023-03-04T03:43:26;97748.59;;;6.03;52.86
65013;BME280;51715;39.432;-77.518;2023-03-04T03:45:55;97757.59;;;5.51;53.46
65013;BME280;51715;39.432;-77.518;2023-03-04T03:48:23;97814.98;;;5.56;53.30
65013;BME280;51715;39.432;-77.518;2023-03-04T03:50:51;97825.02;;;5.69;52.91
65013;BME280;51715;39.432;-77.518;2023-03-04T03:53:20;97787.49;;;5.65;52.41
65013;BME280;51715;39.432;-77.518;2023-03-04T03:55:49;97746.68;;;5.42;52.92
65013;BME280;51715;39.432;-77.518;2023-03-04T03:58:17;97755.61;;;5.14;54.19
65013;BME280;51715;39.432;-77.518;2023-03-04T04:00:46;97726.39;;;5.86;52.14
65013;BME280;51715;39.432;-77.518;2023-03-04T04:03:14;97691.34;;;6.17;50.73
65013;BME280;51715;39.432;-77.518;2023-03-04T04:05:44;97626.37;;;5.41;52.49
65013;BME280;51715;39.432;-77.518;2023-03-04T04:08:12;97594.34;;;5.54;52.71
65013;BME280;51715;39.432;-77.518;2023-03-04T04:10:42;97499.89;;;4.51;54.67
65013;BME280;51715;39.432;-77.518;2023-03-04T04:13:10;97431.56;;;4.17;56.09
65013;BME280;51715;39.432;-77.518;2023-03-04T04:15:39;97428.57;;;4.94;54.80
65013;BME280;51715;39.432;-77.518;2023-03-04T04:18:08;97408.31;;;5.72;52.76
65013;BME280;51715;39.432;-77.518;2023-03-04T04:20:36;97400.45;;;5.84;52.32
65013;BME280;51715;39.432;-77.518;2023-03-04T04:23:04;97394.26;;;5.87;52.36
65013;BME280;51715;39.432;-77.518;2023-03-04T04:25:34;97420.76;;;4.70;56.17
65013;BME280;51715;39.432;-77.518;2023-03-04T04:28:02;97416.65;;;4.60;57.79
65013;BME280;51715;39.432;-77.518;2023-03-04T04:30:30;97445.51;;;4.02;59.70
65013;BME280;51715;39.432;-77.518;2023-03-04T04:32:59;97460.24;;;5.52;56.15
65013;BME280;51715;39.432;-77.518;2023-03-04T04:35:28;97472.11;;;5.72;56.30
65013;BME280;51715;39.432;-77.518;2023-03-04T04:37:57;97474.18;;;6.12;54.28
65013;BME280;51715;39.432;-77.518;2023-03-04T04:40:26;97460.63;;;6.94;52.56
65013;BME280;51715;39.432;-77.518;2023-03-04T04:42:53;97457.09;;;7.05;51.72
65013;BME280;51715;39.432;-77.518;2023-03-04T04:45:22;97407.35;;;6.17;53.75
65013;BME280;51715;39.432;-77.518;2023-03-04T04:47:51;97381.81;;;6.04;54.29
65013;BME280;51715;39.432;-77.518;2023-03-04T04:50:20;97392.96;;;6.24;53.00
65013;BME280;51715;39.432;-77.518;2023-03-04T04:52:49;97376.40;;;6.43;52.53
65013;BME280;51715;39.432;-77.518;2023-03-04T04:55:17;97397.27;;;6.47;52.17
65013;BME280;51715;39.432;-77.518;2023-03-04T04:57:47;97387.99;;;7.53;50.66
65013;BME280;51715;39.432;-77.518;2023-03-04T05:04:01;97366.54;;;7.40;48.80
65013;BME280;51715;39.432;-77.518;2023-03-04T05:06:29;97350.04;;;5.16;54.50
65013;BME280;51715;39.432;-77.518;2023-03-04T05:08:58;97314.70;;;5.22;54.38
65013;BME280;51715;39.432;-77.518;2023-03-04T05:11:27;97289.96;;;4.90;56.11
65013;BME280;51715;39.432;-77.518;2023-03-04T05:13:55;97265.06;;;6.32;53.67
65013;BME280;51715;39.432;-77.518;2023-03-04T05:16:24;97276.96;;;6.60;52.72
65013;BME280;51715;39.432;-77.518;2023-03-04T05:18:52;97286.10;;;6.32;52.96
65013;BME280;51715;39.432;-77.518;2023-03-04T05:21:21;97271.04;;;6.96;51.91
65013;BME280;51715;39.432;-77.518;2023-03-04T05:23:49;97256.57;;;7.72;50.26
65013;BME280;51715;39.432;-77.518;2023-03-04T05:26:18;97237.70;;;7.62;50.87
65013;BME280;51715;39.432;-77.518;2023-03-04T05:28:47;97232.52;;;7.29;51.56
65013;BME280;51715;39.432;-77.518;2023-03-04T05:31:15;97218.50;;;7.17;51.32
65013;BME280;51715;39.432;-77.518;2023-03-04T05:33:43;97200.58;;;7.28;51.70
65013;BME280;51715;39.432;-77.518;2023-03-04T05:36:11;97193.82;;;6.15;54.86
65013;BME280;51715;39.432;-77.518;2023-03-04T05:38:40;97184.02;;;7.41;52.26
65013;BME280;51715;39.432;-77.518;2023-03-04T05:41:09;97184.36;;;7.92;50.75
65013;BME280;51715;39.432;-77.518;2023-03-04T05:43:37;97171.68;;;7.51;51.89
65013;BME280;51715;39.432;-77.518;2023-03-04T05:46:06;97177.19;;;8.09;51.28
65013;BME280;51715;39.432;-77.518;2023-03-04T05:48:34;97177.29;;;8.16;50.98
65013;BME280;51715;39.432;-77.518;2023-03-04T05:51:02;97164.14;;;8.11;50.38
65013;BME280;51715;39.432;-77.518;2023-03-04T05:53:30;97174.97;;;8.10;50.65
65013;BME280;51715;39.432;-77.518;2023-03-04T05:56:09;97165.46;;;7.93;51.32
65013;BME280;51715;39.432;-77.518;2023-03-04T05:58:37;97181.71;;;8.79;49.82
65013;BME280;51715;39.432;-77.518;2023-03-04T06:01:06;97181.58;;;8.87;48.93
65013;BME280;51715;39.432;-77.518;2023-03-04T06:03:35;97192.84;;;8.20;48.92
65013;BME280;51715;39.432;-77.518;2023-03-04T06:06:05;97197.12;;;8.59;48.83
65013;BME280;51715;39.432;-77.518;2023-03-04T06:08:33;97202.93;;;8.61;47.09
65013;BME280;51715;39.432;-77.518;2023-03-04T06:11:01;97193.96;;;8.69;47.25
65013;BME280;51715;39.432;-77.518;2023-03-04T06:13:29;97196.57;;;8.60;46.78
65013;BME280;51715;39.432;-77.518;2023-03-04T06:15:59;97198.42;;;8.86;46.52
65013;BME280;51715;39.432;-77.518;2023-03-04T06:18:29;97216.95;;;9.16;46.29
65013;BME280;51715;39.432;-77.518;2023-03-04T06:20:57;97211.70;;;8.94;46.28
65013;BME280;51715;39.432;-77.518;2023-03-04T06:23:26;97214.18;;;8.88;46.54
65013;BME280;51715;39.432;-77.518;2023-03-04T06:25:56;97233.35;;;9.07;46.24
65013;BME280;51715;39.432;-77.518;2023-03-04T06:28:25;97245.30;;;8.90;46.37
65013;BME280;51715;39.432;-77.518;2023-03-04T06:30:54;97247.41;;;8.97;46.18
65013;BME280;51715;39.432;-77.518;2023-03-04T06:33:23;97253.67;;;9.01;46.06
65013;BME280;51715;39.432;-77.518;2023-03-04T06:35:54;97255.35;;;9.22;46.32
65013;BME280;51715;39.432;-77.518;2023-03-04T06:38:23;97258.77;;;9.00;45.99
65013;BME280;51715;39.432;-77.518;2023-03-04T06:40:52;97259.41;;;8.98;45.94
65013;BME280;51715;39.432;-77.518;2023-03-04T06:43:21;97261.59;;;8.98;45.99
65013;BME280;51715;39.432;-77.518;2023-03-04T06:45:49;97272.04;;;9.09;45.93
65013;BME280;51715;39.432;-77.518;2023-03-04T06:48:17;97281.90;;;9.37;46.12
65013;BME280;51715;39.432;-77.518;2023-03-04T06:50:45;97280.04;;;9.10;45.85
65013;BME280;51715;39.432;-77.518;2023-03-04T06:53:12;97271.28;;;8.88;45.92
65013;BME280;51715;39.432;-77.518;2023-03-04T06:55:41;97266.12;;;8.94;45.83
65013;BME280;51715;39.432;-77.518;2023-03-04T06:58:10;97263.09;;;9.03;45.61
65013;BME280;51715;39.432;-77.518;2023-03-04T07:00:38;97239.38;;;8.92;45.16
65013;BME280;51715;39.432;-77.518;2023-03-04T07:03:06;97218.59;;;8.73;45.13
65013;BME280;51715;39.432;-77.518;2023-03-04T07:05:34;97219.30;;;8.57;45.06
65013;BME280;51715;39.432;-77.518;2023-03-04T07:08:02;97239.82;;;8.77;45.15
65013;BME280;51715;39.432;-77.518;2023-03-04T07:10:31;97254.47;;;8.54;44.91
65013;BME280;51715;39.432;-77.518;2023-03-04T07:12:59;97254.45;;;8.82;44.73
65013;BME280;51715;39.432;-77.518;2023-03-04T07:15:29;97256.28;;;8.79;45.05
65013;BME280;51715;39.432;-77.518;2023-03-04T07:18:03;97259.20;;;8.44;45.25
65013;BME280;51715;39.432;-77.518;2023-03-04T07:20:31;97282.18;;;8.54;44.91
65013;BME280;51715;39.432;-77.518;2023-03-04T07:22:59;97282.59;;;7.76;45.86
65013;BME280;51715;39.432;-77.518;2023-03-04T07:25:28;97284.19;;;8.34;45.51
65013;BME280;51715;39.432;-77.518;2023-03-04T07:27:56;97288.07;;;7.87;45.74
65013;BME280;51715;39.432;-77.518;2023-03-04T07:30:25;97306.09;;;7.92;45.59
65013;BME280;51715;39.432;-77.518;2023-03-04T07:32:56;97305.93;;;7.39;46.84
65013;BME280;51715;39.432;-77.518;2023-03-04T07:35:24;97302.92;;;7.45;46.44
65013;BME280;51715;39.432;-77.518;2023-03-04T07:37:51;97319.25;;;7.48;46.63
65013;BME280;51715;39.432;-77.518;2023-03-04T07:40:20;97310.44;;;7.20;47.00
65013;BME280;51715;39.432;-77.518;2023-03-04T07:42:49;97319.09;;;6.97;47.74
65013;BME280;51715;39.432;-77.518;2023-03-04T07:45:18;97341.60;;;6.65;48.40
65013;BME280;51715;39.432;-77.518;2023-03-04T07:47:47;97358.27;;;6.80;48.55
65013;BME280;51715;39.432;-77.518;2023-03-04T07:50:16;97363.66;;;6.14;49.06
65013;BME280;51715;39.432;-77.518;2023-03-04T07:52:46;97388.91;;;5.36;50.91
65013;BME280;51715;39.432;-77.518;2023-03-04T07:55:16;97410.28;;;4.96;52.32
65013;BME280;51715;39.432;-77.518;2023-03-04T07:57:45;97425.02;;;5.00;52.29
65013;BME280;51715;39.432;-77.518;2023-03-04T08:00:15;97421.45;;;4.98;51.86
65013;BME280;51715;39.432;-77.518;2023-03-04T08:02:43;97403.96;;;5.54;50.64
65013;BME280;51715;39.432;-77.518;2023-03-04T08:05:11;97399.97;;;6.06;49.59
65013;BME280;51715;39.432;-77.518;2023-03-04T08:07:39;97410.67;;;5.41;50.18
65013;BME280;51715;39.432;-77.518;2023-03-04T08:10:09;97411.24;;;5.68;49.94
65013;BME280;51715;39.432;-77.518;2023-03-04T08:12:37;97414.05;;;5.14;50.72
65013;BME280;51715;39.432;-77.518;2023-03-04T08:15:06;97406.93;;;6.10;49.21
65013;BME280;51715;39.432;-77.518;2023-03-04T08:17:34;97400.87;;;6.77;48.16
65013;BME280;51715;39.432;-77.518;2023-03-04T08:20:02;97407.37;;;6.84;47.44
65013;BME280;51715;39.432;-77.518;2023-03-04T08:22:31;97405.68;;;6.53;47.64
65013;BME280;51715;39.432;-77.518;2023-03-04T08:24:58;97396.07;;;6.73;47.38
65013;BME280;51715;39.432;-77.518;2023-03-04T08:27:27;97398.91;;;7.25;46.72
65013;BME280;51715;39.432;-77.518;2023-03-04T08:29:56;97400.27;;;6.87;46.82
65013;BME280;51715;39.432;-77.518;2023-03-04T08:32:24;97405.38;;;6.98;46.81
65013;BME280;51715;39.432;-77.518;2023-03-04T08:34:53;97397.50;;;7.11;46.67
65013;BME280;51715;39.432;-77.518;2023-03-04T08:37:21;97401.19;;;7.22;46.46
65013;BME280;51715;39.432;-77.518;2023-03-04T08:39:50;97401.49;;;7.34;46.26
65013;BME280;51715;39.432;-77.518;2023-03-04T08:42:18;97415.35;;;7.42;45.97
65013;BME280;51715;39.432;-77.518;2023-03-04T08:44:46;97424.25;;;7.52;45.72
65013;BME280;51715;39.432;-77.518;2023-03-04T08:47:14;97435.19;;;7.02;45.98
65013;BME280;51715;39.432;-77.518;2023-03-04T08:49:43;97439.81;;;7.53;46.07
65013;BME280;51715;39.432;-77.518;2023-03-04T08:52:11;97432.10;;;7.21;46.14
65013;BME280;51715;39.432;-77.518;2023-03-04T08:54:38;97435.90;;;7.62;46.03
65013;BME280;51715;39.432;-77.518;2023-03-04T08:57:07;97442.38;;;7.66;45.92
65013;BME280;51715;39.432;-77.518;2023-03-04T08:59:35;97444.89;;;7.83;45.74
65013;BME280;51715;39.432;-77.518;2023-03-04T09:02:03;97454.71;;;7.40;45.63
65013;BME280;51715;39.432;-77.518;2023-03-04T09:04:31;97459.06;;;7.40;46.01
65013;BME280;51715;39.432;-77.518;2023-03-04T09:06:59;97471.45;;;7.34;46.21
65013;BME280;51715;39.432;-77.518;2023-03-04T09:09:27;97483.73;;;7.57;46.17
65013;BME280;51715;39.432;-77.518;2023-03-04T09:11:55;97477.01;;;7.44;46.28
65013;BME280;51715;39.432;-77.518;2023-03-04T09:14:24;97484.39;;;7.66;45.96
65013;BME280;51715;39.432;-77.518;2023-03-04T09:16:52;97481.60;;;7.24;45.64
65013;BME280;51715;39.432;-77.518;2023-03-04T09:19:21;97483.29;;;7.23;46.12
65013;BME280;51715;39.432;-77.518;2023-03-04T09:21:49;97491.01;;;7.62;45.74
65013;BME280;51715;39.432;-77.518;2023-03-04T09:24:17;97490.93;;;7.54;45.69
65013;BME280;51715;39.432;-77.518;2023-03-04T09:26:48;97494.61;;;7.89;45.85
65013;BME280;51715;39.432;-77.518;2023-03-04T09:29:16;97513.11;;;7.30;45.96
65013;BME280;51715;39.432;-77.518;2023-03-04T09:31:45;97524.17;;;7.05;46.45
65013;BME280;51715;39.432;-77.518;2023-03-04T09:34:13;97537.15;;;7.15;46.31
65013;BME280;51715;39.432;-77.518;2023-03-04T09:36:42;97543.89;;;7.39;45.98
65013;BME280;51715;39.432;-77.518;2023-03-04T09:39:09;97544.78;;;7.60;45.82
65013;BME280;51715;39.432;-77.518;2023-03-04T09:41:39;97548.58;;;7.65;45.58
65013;BME280;51715;39.432;-77.518;2023-03-04T09:44:14;97548.48;;;7.78;45.42
65013;BME280;51715;39.432;-77.518;2023-03-04T09:46:45;97554.28;;;7.68;44.86
65013;BME280;51715;39.432;-77.518;2023-03-04T09:49:14;97566.46;;;7.47;44.23
65013;BME280;51715;39.432;-77.518;2023-03-04T09:51:49;97572.31;;;7.48;44.59
65013;BME280;51715;39.432;-77.518;2023-03-04T09:54:34;97591.60;;;5.89;47.35
65013;BME280;51715;39.432;-77.518;2023-03-04T09:57:21;97600.09;;;6.65;46.26
65013;BME280;51715;39.432;-77.518;2023-03-04T09:59:56;97606.02;;;6.69;45.24
65013;BME280;51715;39.432;-77.518;2023-03-04T10:02:37;97604.96;;;6.40;45.23
65013;BME280;51715;39.432;-77.518;2023-03-04T10:05:14;97610.38;;;6.57;45.19
65013;BME280;51715;39.432;-77.518;2023-03-04T10:07:48;97620.20;;;6.71;44.73
65013;BME280;51715;39.432;-77.518;2023-03-04T10:10:21;97622.15;;;5.99;46.16
65013;BME280;51715;39.432;-77.518;2023-03-04T10:12:52;97626.86;;;5.59;47.14
65013;BME280;51715;39.432;-77.518;2023-03-04T10:15:30;97631.21;;;5.51;47.81
65013;BME280;51715;39.432;-77.518;2023-03-04T10:18:06;97625.13;;;5.36;48.48
65013;BME280;51715;39.432;-77.518;2023-03-04T10:20:48;97638.37;;;5.76;48.02
65013;BME280;51715;39.432;-77.518;2023-03-04T10:23:24;97646.81;;;5.72;47.66
65013;BME280;51715;39.432;-77.518;2023-03-04T10:25:53;97643.22;;;6.16;47.05
65013;BME280;51715;39.432;-77.518;2023-03-04T10:28:23;97638.23;;;5.22;49.43
65013;BME280;51715;39.432;-77.518;2023-03-04T10:30:58;97650.84;;;5.97;48.75
65013;BME280;51715;39.432;-77.518;2023-03-04T10:33:30;97651.29;;;6.13;47.39
65013;BME280;51715;39.432;-77.518;2023-03-04T10:36:02;97662.25;;;6.01;47.94
65013;BME280;51715;39.432;-77.518;2023-03-04T10:38:32;97672.64;;;6.46;47.25
65013;BME280;51715;39.432;-77.518;2023-03-04T10:41:01;97677.23;;;6.18;47.88
65013;BME280;51715;39.432;-77.518;2023-03-04T10:43:38;97677.20;;;4.95;52.00
65013;BME280;51715;39.432;-77.518;2023-03-04T10:46:10;97672.74;;;4.86;52.60
65013;BME280;51715;39.432;-77.518;2023-03-04T10:48:42;97682.81;;;5.77;52.24
65013;BME280;51715;39.432;-77.518;2023-03-04T10:51:15;97673.48;;;5.68;53.52
65013;BME280;51715;39.432;-77.518;2023-03-04T10:53:46;97680.36;;;5.18;55.57
65013;BME280;51715;39.432;-77.518;2023-03-04T10:56:33;97690.05;;;5.76;55.50
65013;BME280;51715;39.432;-77.518;2023-03-04T10:59:45;97701.36;;;5.74;54.08
65013;BME280;51715;39.432;-77.518;2023-03-04T11:02:20;97698.96;;;6.00;54.15
65013;BME280;51715;39.432;-77.518;2023-03-04T11:04:51;97711.01;;;5.80;53.66
65013;BME280;51715;39.432;-77.518;2023-03-04T11:07:21;97718.59;;;6.22;52.53
65013;BME280;51715;39.432;-77.518;2023-03-04T11:09:50;97728.08;;;6.38;52.75
65013;BME280;51715;39.432;-77.518;2023-03-04T11:12:21;97737.55;;;6.33;51.33
65013;BME280;51715;39.432;-77.518;2023-03-04T11:14:58;97749.57;;;5.76;52.36
65013;BME280;51715;39.432;-77.518;2023-03-04T11:17:30;97758.34;;;6.46;50.96
65013;BME280;51715;39.432;-77.518;2023-03-04T11:20:13;97770.41;;;7.04;48.83
65013;BME280;51715;39.432;-77.518;2023-03-04T11:22:45;97766.12;;;6.89;49.76
65013;BME280;51715;39.432;-77.518;2023-03-04T11:25:24;97782.39;;;6.99;47.64
65013;BME280;51715;39.432;-77.518;2023-03-04T11:27:56;97780.13;;;7.51;48.34
65013;BME280;51715;39.432;-77.518;2023-03-04T11:30:43;97794.19;;;7.59;47.36
65013;BME280;51715;39.432;-77.518;2023-03-04T11:33:18;97804.21;;;8.04;46.92
65013;BME280;51715;39.432;-77.518;2023-03-04T11:35:53;97823.63;;;8.04;46.71
65013;BME280;51715;39.432;-77.518;2023-03-04T11:38:30;97828.31;;;7.91;45.16
65013;BME280;51715;39.432;-77.518;2023-03-04T11:41:03;97832.34;;;7.69;46.24
65013;BME280;51715;39.432;-77.518;2023-03-04T11:43:35;97849.02;;;7.65;45.84
65013;BME280;51715;39.432;-77.518;2023-03-04T11:46:17;97864.34;;;8.81;45.48
65013;BME280;51715;39.432;-77.518;2023-03-04T11:49:06;97858.04;;;8.81;43.34
65013;BME280;51715;39.432;-77.518;2023-03-04T11:51:39;97870.29;;;8.47;43.33
65013;BME280;51715;39.432;-77.518;2023-03-04T11:54:21;97877.92;;;8.00;44.07
65013;BME280;51715;39.432;-77.518;2023-03-04T11:56:56;97886.66;;;7.28;44.25
65013;BME280;51715;39.432;-77.518;2023-03-04T11:59:35;97906.72;;;7.10;44.99
65013;BME280;51715;39.432;-77.518;2023-03-04T12:02:26;97906.97;;;7.65;44.43
65013;BME280;51715;39.432;-77.518;2023-03-04T12:05:13;97919.12;;;6.93;43.37
65013;BME280;51715;39.432;-77.518;2023-03-04T12:08:24;97932.07;;;7.26;41.93
65013;BME280;51715;39.432;-77.518;2023-03-04T12:11:02;97957.77;;;6.82;43.87
65013;BME280;51715;39.432;-77.518;2023-03-04T12:13:43;97964.16;;;6.88;43.01
65013;BME280;51715;39.432;-77.518;2023-03-04T12:16:22;97976.95;;;7.25;44.12
65013;BME280;51715;39.432;-77.518;2023-03-04T12:19:05;97990.68;;;8.07;42.40
65013;BME280;51715;39.432;-77.518;2023-03-04T12:21:55;97998.70;;;9.03;40.11
65013;BME280;51715;39.432;-77.518;2023-03-04T12:24:37;98014.55;;;8.52;40.35
65013;BME280;51715;39.432;-77.518;2023-03-04T12:27:19;98026.23;;;7.17;42.70
65013;BME280;51715;39.432;-77.518;2023-03-04T12:29:55;98035.29;;;7.38;42.33
65013;BME280;51715;39.432;-77.518;2023-03-04T12:32:34;98049.66;;;7.20;41.95
65013;BME280;51715;39.432;-77.518;2023-03-04T12:35:41;98052.70;;;6.90;41.36
65013;BME280;51715;39.432;-77.518;2023-03-04T12:38:25;98068.00;;;7.47;41.82
65013;BME280;51715;39.432;-77.518;2023-03-04T12:40:59;98079.05;;;8.47;40.02
65013;BME280;51715;39.432;-77.518;2023-03-04T12:43:37;98084.45;;;7.49;39.93
65013;BME280;51715;39.432;-77.518;2023-03-04T12:46:17;98084.85;;;7.06;41.85
65013;BME280;51715;39.432;-77.518;2023-03-04T12:48:54;98094.38;;;7.21;40.30
65013;BME280;51715;39.432;-77.518;2023-03-04T12:51:31;98113.62;;;6.63;42.06
65013;BME280;51715;39.432;-77.518;2023-03-04T12:54:17;98119.31;;;6.06;42.53
65013;BME280;51715;39.432;-77.518;2023-03-04T12:56:52;98129.89;;;7.23;41.91
65013;BME280;51715;39.432;-77.518;2023-03-04T12:59:22;98127.95;;;6.74;40.29
65013;BME280;51715;39.432;-77.518;2023-03-04T13:02:02;98133.45;;;7.15;39.43
65013;BME280;51715;39.432;-77.518;2023-03-04T13:04:37;98114.00;;;6.29;40.75
65013;BME280;51715;39.432;-77.518;2023-03-04T13:07:13;98147.97;;;5.83;41.53
65013;BME280;51715;39.432;-77.518;2023-03-04T13:09:50;98136.09;;;5.84;41.48
65013;BME280;51715;39.432;-77.518;2023-03-04T13:12:23;98152.85;;;6.06;41.75
65013;BME280;51715;39.432;-77.518;2023-03-04T13:16:02;98155.16;;;6.48;42.07